Terminal Aerodrome Forecast
Issued by NWS Corpus Christi, TX

Current Version | Previous Version | Text Only | Print | Product List | Glossary Off
Versions: 1 2 3 4 5 6 7 8 9 10 11 12 13 14 15

000
FTUS44 KCRP 232017 AAC
TAFCRP
TAF AMD
KCRP 232017Z 2320/2418 15025G35KT P6SM FEW035
     FM232200 15024G30KT P6SM FEW030
     FM240100 15018G25KT P6SM FEW020 SCT250
     FM240900 16017KT P6SM SCT015 BKN025
     FM241500 17020G28KT P6SM VCSH BKN030=

USA.gov is the U.S. government's official web portal to all federal, state and local government web resources and services.